Flight Track Log - Related Links

Times and Time Zones

All times are in EDT time to prevent confusion due to time zone crossing. See the N929JH flight status page for this flight to view local times or setup timezone preferences in your user account.

Time Position Orientation Groundspeed Altitude Reporting Facility
EDT Latitude Longitude Course Direction KTS MPH feet Rate Location/Type
Fri 04:19:50 PM 27.9833 -82.0333 270° West 159 183 700  Level Tampa TRACON
Fri 04:20:56 PM 27.9833 -82.1000 270° West 205 236 2,900 2,591 Climbing Tampa TRACON
Fri 04:22:02 PM 28.0500 -82.1500 327° Northwest 265 305 6,400 2,809 Climbing Tampa TRACON
Fri 04:24:04 PM 28.1817 -82.2614 323° Northwest 361 415 11,700 1,813 Climbing Jacksonville Center
Fri 04:25:04 PM 28.2572 -82.3247 324° Northwest 342 394 11,900 1,300 Climbing Jacksonville Center
Fri 04:26:04 PM 28.3367 -82.3925 323° Northwest 342 394 14,300 2,300 Climbing Jacksonville Center
Fri 04:27:04 PM 28.4142 -82.4558 324° Northwest 342 394 16,500 2,150 Climbing Jacksonville Center
Fri 04:28:04 PM 28.5061 -82.5028 336° Northwest 347 399 18,600 2,350 Climbing Jacksonville Center
Fri 04:29:04 PM 28.6003 -82.5403 341° North 352 405 21,200 2,250 Climbing Jacksonville Center
Fri 04:30:04 PM 28.6753 -82.5708 340° North 352 405 23,100 2,150 Climbing Jacksonville Center
Fri 04:31:04 PM 28.7778 -82.6036 344° North 352 405 25,500 2,050 Climbing Jacksonville Center
Fri 04:32:04 PM 28.8758 -82.6200 352° North 347 399 27,200 1,600 Climbing Jacksonville Center
Fri 04:33:04 PM 28.9783 -82.6361 352° North 359 413 28,700 1,550 Climbing Jacksonville Center
Fri 04:34:04 PM 29.0825 -82.6550 351° North 371 427 30,300 1,550 Climbing Jacksonville Center
Fri 04:35:04 PM 29.1869 -82.6761 350° North 371 427 31,800 1,500 Climbing Jacksonville Center
Fri 04:36:04 PM 29.2914 -82.6950 351° North 371 427 33,300 1,400 Climbing Jacksonville Center
Fri 04:37:04 PM 29.3978 -82.6972 359° North 371 427 34,600 1,350 Climbing Jacksonville Center
Fri 04:38:04 PM 29.5189 -82.6922 North 385 443 36,000 1,400 Climbing Jacksonville Center
Fri 04:39:04 PM 29.6233 -82.6800 North 385 443 37,400 1,250 Climbing Jacksonville Center
Fri 04:40:04 PM 29.7319 -82.6703 North 385 443 38,500 800 Climbing Jacksonville Center
Fri 04:41:04 PM 29.8425 -82.6628 North 395 455 39,000 350 Climbing Jacksonville Center
Fri 04:42:04 PM 29.9447 -82.6528 North 400 460 39,200 600 Climbing Jacksonville Center
Fri 04:43:04 PM 30.0617 -82.6431 North 406 467 40,200 900 Climbing Jacksonville Center
Fri 04:44:04 PM 30.1806 -82.6331 North 411 473 41,000 400 Climbing Jacksonville Center
Fri 04:45:04 PM 30.3017 -82.6208 North 425 489 41,000  Level Jacksonville Center
Fri 04:46:04 PM 30.4269 -82.6108 North 437 503 41,000  Level Jacksonville Center
Fri 04:47:04 PM 30.5544 -82.6008 North 442 509 41,000  Level Jacksonville Center
Fri 04:48:04 PM 30.6775 -82.5883 North 447 514 41,000  Level Jacksonville Center
Fri 04:49:04 PM 30.7983 -82.5322 22° Northeast 439 505 41,000  Level Jacksonville Center
Fri 04:50:04 PM 30.9153 -82.4736 23° Northeast 444 511 41,000  Level Jacksonville Center
Fri 04:51:04 PM 31.0297 -82.4125 25° Northeast 449 517 41,000  Level Jacksonville Center
Fri 04:52:04 PM 31.1486 -82.3536 23° Northeast 449 517 41,000  Level Jacksonville Center
Fri 04:53:04 PM 31.2672 -82.2947 23° Northeast 454 522 41,000  Level Jacksonville Center
Fri 04:54:04 PM 31.3839 -82.2331 24° Northeast 454 522 41,000  Level Jacksonville Center
Fri 04:55:04 PM 31.4983 -82.1714 25° Northeast 454 522 41,000 -200 Level Jacksonville Center
Fri 04:56:04 PM 31.6172 -82.1094 24° Northeast 454 522 40,600 -750 Descending Jacksonville Center
Fri 04:57:04 PM 31.7506 -82.0742 13° North 448 516 39,500 -1,150 Descending Jacksonville Center
Fri 04:58:04 PM 31.8778 -82.0608 North 458 527 38,300 -1,150 Descending Jacksonville Center
Fri 04:59:04 PM 31.9906 -82.0719 355° North 458 527 37,200 -980 Descending Jacksonville Center
Fri 05:01:26 PM 32.2061 -82.3033 318° Northwest 414 476 35,000 -713 Descending Atlanta Center
Fri 05:02:26 PM 32.2803 -82.3928 314° West 429 494 34,800 -650 Descending Atlanta Center
Fri 05:03:26 PM 32.3753 -82.4797 322° Northwest 429 494 33,700 -900 Descending Atlanta Center
Fri 05:04:26 PM 32.4642 -82.5764 317° Northwest 429 494 33,000 -350 Descending Atlanta Center
Fri 05:05:26 PM 32.5447 -82.6761 314° West 424 488 33,000 -350 Level Atlanta Center
Fri 05:06:26 PM 32.6314 -82.7736 317° Northwest 424 488 32,300 -1,650 Descending Atlanta Center
Fri 05:07:26 PM 32.7181 -82.8761 315° West 430 495 29,700 -2,750 Descending Atlanta Center
Fri 05:08:26 PM 32.8044 -82.9761 316° Northwest 438 504 26,800 -2,750 Descending Atlanta Center
Fri 05:09:26 PM 32.8886 -83.0742 316° Northwest 427 491 24,200 -2,550 Descending Atlanta Center
Fri 05:10:26 PM 32.9667 -83.1647 316° Northwest 412 474 21,700 -2,550 Descending Atlanta Center
Fri 05:11:26 PM 33.0486 -83.2631 315° West 393 452 19,100 -2,250 Descending Atlanta Center
Fri 05:12:26 PM 33.1181 -83.3492 314° West 380 437 17,200 -1,950 Descending Atlanta Center
Fri 05:13:26 PM 33.1894 -83.4306 316° Northwest 365 420 15,200 -1,950 Descending Atlanta Center
Fri 05:14:26 PM 33.2544 -83.5072 315° West 354 407 13,300 -1,850 Descending Atlanta Center
Fri 05:15:26 PM 33.3194 -83.5839 315° West 336 387 11,500 -1,150 Descending Atlanta Center
Fri 05:16:26 PM 33.3761 -83.6558 313° West 314 361 11,000 -250 Descending Atlanta Center
Fri 05:17:26 PM 33.4431 -83.7128 325° Northwest 301 346 11,000 -50 Level Atlanta Center
Fri 05:18:26 PM 33.5100 -83.7697 325° Northwest 296 341 10,900 -500 Descending Atlanta Center
Fri 05:19:26 PM 33.5875 -83.8094 337° Northwest 296 341 10,000 -1,200 Descending Atlanta Center
Fri 05:20:26 PM 33.6667 -83.8517 336° Northwest 301 346 8,500 -2,000 Descending Atlanta Center
Fri 05:21:26 PM 33.7481 -83.8614 354° North 295 339 6,000 -2,200 Descending Atlanta Center
Fri 05:22:26 PM 33.8131 -83.9014 333° Northwest 277 319 4,100 -1,000 Descending Atlanta Center
Fri 05:23:26 PM 33.8486 -83.9814 298° West 256 295 4,000 -422 Descending Atlanta Center
Fri 05:24:34 PM 33.8833 -84.0667 296° West 265 305 3,200 -469 Descending Atlanta TRACON
Fri 05:25:34 PM 33.9167 -84.1333 301° West 238 274 3,000 -250 Descending Atlanta TRACON
Fri 05:26:34 PM 33.9333 -84.2000 287° West 216 249 2,700 -400 Descending Atlanta TRACON
Fri 05:27:34 PM 33.9333 -84.2667 270° West 162 186 2,200 -600 Descending Atlanta TRACON
Fri 05:28:34 PM 33.9000 -84.2833 203° Southwest 137 158 1,500 -700 Descending Atlanta TRACON
Fri 05:30:00 PM 33.8667 -84.3000 220° Southwest  Level FlightAware Approximate
Fri 05:37:00 PM 33.8756 -84.3020 220° Southwest  Level Estimated

Login

Don't have an account? Register now (free) for customized features, flight alerts, and more!